sensor_id;sensor_type;location;lat;lon;timestamp;temperature;humidity
20380;DHT22;10349;48.666;8.948;2023-06-26T00:01:23;19.10;99.90
20380;DHT22;10349;48.666;8.948;2023-06-26T00:03:49;19.10;99.90
20380;DHT22;10349;48.666;8.948;2023-06-26T00:06:15;19.00;99.90
20380;DHT22;10349;48.666;8.948;2023-06-26T00:08:40;19.00;99.90
20380;DHT22;10349;48.666;8.948;2023-06-26T00:11:06;19.00;99.90
20380;DHT22;10349;48.666;8.948;2023-06-26T00:13:33;19.00;99.90
20380;DHT22;10349;48.666;8.948;2023-06-26T00:15:59;18.90;99.90
20380;DHT22;10349;48.666;8.948;2023-06-26T00:18:28;19.00;99.90
20380;DHT22;10349;48.666;8.948;2023-06-26T00:20:54;18.90;99.90
20380;DHT22;10349;48.666;8.948;2023-06-26T00:23:20;18.80;99.90
20380;DHT22;10349;48.666;8.948;2023-06-26T00:25:46;18.80;99.90
20380;DHT22;10349;48.666;8.948;2023-06-26T00:28:12;18.80;99.90
20380;DHT22;10349;48.666;8.948;2023-06-26T00:30:38;18.80;99.90
20380;DHT22;10349;48.666;8.948;2023-06-26T00:33:03;18.80;99.90
20380;DHT22;10349;48.666;8.948;2023-06-26T00:35:31;18.70;99.90
20380;DHT22;10349;48.666;8.948;2023-06-26T00:37:56;18.70;99.90
20380;DHT22;10349;48.666;8.948;2023-06-26T00:40:22;18.60;99.90
20380;DHT22;10349;48.666;8.948;2023-06-26T00:42:50;18.50;99.90
20380;DHT22;10349;48.666;8.948;2023-06-26T00:45:16;18.40;99.90
20380;DHT22;10349;48.666;8.948;2023-06-26T00:47:41;18.30;99.90
20380;DHT22;10349;48.666;8.948;2023-06-26T00:50:07;18.30;99.90
20380;DHT22;10349;48.666;8.948;2023-06-26T00:52:34;18.10;99.90
20380;DHT22;10349;48.666;8.948;2023-06-26T00:55:00;18.10;99.90
20380;DHT22;10349;48.666;8.948;2023-06-26T00:57:26;18.10;99.90
20380;DHT22;10349;48.666;8.948;2023-06-26T00:59:53;17.90;99.90
20380;DHT22;10349;48.666;8.948;2023-06-26T01:02:20;17.90;99.90
20380;DHT22;10349;48.666;8.948;2023-06-26T01:04:49;17.80;99.90
20380;DHT22;10349;48.666;8.948;2023-06-26T01:07:16;17.80;99.90
20380;DHT22;10349;48.666;8.948;2023-06-26T01:09:48;17.70;99.90
20380;DHT22;10349;48.666;8.948;2023-06-26T01:12:14;17.70;99.90
20380;DHT22;10349;48.666;8.948;2023-06-26T01:14:40;17.70;99.90
20380;DHT22;10349;48.666;8.948;2023-06-26T01:17:07;17.60;99.90
20380;DHT22;10349;48.666;8.948;2023-06-26T01:19:37;17.60;99.90
20380;DHT22;10349;48.666;8.948;2023-06-26T01:22:29;17.60;99.90
20380;DHT22;10349;48.666;8.948;2023-06-26T01:27:50;17.50;99.90
20380;DHT22;10349;48.666;8.948;2023-06-26T01:30:16;17.50;99.90
20380;DHT22;10349;48.666;8.948;2023-06-26T01:32:44;17.50;99.90
20380;DHT22;10349;48.666;8.948;2023-06-26T01:35:11;17.50;99.90
20380;DHT22;10349;48.666;8.948;2023-06-26T01:37:36;17.50;99.90
20380;DHT22;10349;48.666;8.948;2023-06-26T01:40:03;17.40;99.90
20380;DHT22;10349;48.666;8.948;2023-06-26T01:42:34;17.40;99.90
20380;DHT22;10349;48.666;8.948;2023-06-26T01:45:14;17.40;99.90
20380;DHT22;10349;48.666;8.948;2023-06-26T01:47:49;17.30;99.90
20380;DHT22;10349;48.666;8.948;2023-06-26T01:50:22;17.30;99.90
20380;DHT22;10349;48.666;8.948;2023-06-26T01:53:04;17.20;99.90
20380;DHT22;10349;48.666;8.948;2023-06-26T01:55:49;17.20;99.90
20380;DHT22;10349;48.666;8.948;2023-06-26T01:58:17;17.20;99.90
20380;DHT22;10349;48.666;8.948;2023-06-26T02:00:46;17.10;99.90
20380;DHT22;10349;48.666;8.948;2023-06-26T02:03:12;17.10;99.90
20380;DHT22;10349;48.666;8.948;2023-06-26T02:05:38;17.00;99.90
20380;DHT22;10349;48.666;8.948;2023-06-26T02:08:04;16.90;99.90
20380;DHT22;10349;48.666;8.948;2023-06-26T02:10:30;16.90;99.90
20380;DHT22;10349;48.666;8.948;2023-06-26T02:12:57;16.90;99.90
20380;DHT22;10349;48.666;8.948;2023-06-26T02:15:22;16.90;99.90
20380;DHT22;10349;48.666;8.948;2023-06-26T02:17:48;16.90;99.90
20380;DHT22;10349;48.666;8.948;2023-06-26T02:20:17;16.80;99.90
20380;DHT22;10349;48.666;8.948;2023-06-26T02:22:43;16.80;99.90
20380;DHT22;10349;48.666;8.948;2023-06-26T02:25:10;16.80;99.90
20380;DHT22;10349;48.666;8.948;2023-06-26T02:27:37;16.80;99.90
20380;DHT22;10349;48.666;8.948;2023-06-26T02:30:03;16.80;99.90
20380;DHT22;10349;48.666;8.948;2023-06-26T02:32:29;16.80;99.90
20380;DHT22;10349;48.666;8.948;2023-06-26T02:34:55;16.70;99.90
20380;DHT22;10349;48.666;8.948;2023-06-26T02:37:21;16.70;99.90
20380;DHT22;10349;48.666;8.948;2023-06-26T02:39:47;16.70;99.90
20380;DHT22;10349;48.666;8.948;2023-06-26T02:42:13;16.60;99.90
20380;DHT22;10349;48.666;8.948;2023-06-26T02:44:38;16.60;99.90
20380;DHT22;10349;48.666;8.948;2023-06-26T02:47:04;16.60;99.90
20380;DHT22;10349;48.666;8.948;2023-06-26T02:49:31;16.50;99.90
20380;DHT22;10349;48.666;8.948;2023-06-26T02:51:56;16.50;99.90
20380;DHT22;10349;48.666;8.948;2023-06-26T02:54:26;16.40;99.90
20380;DHT22;10349;48.666;8.948;2023-06-26T02:56:54;16.40;99.90
20380;DHT22;10349;48.666;8.948;2023-06-26T02:59:25;16.30;99.90
20380;DHT22;10349;48.666;8.948;2023-06-26T03:01:52;16.30;99.90
20380;DHT22;10349;48.666;8.948;2023-06-26T03:04:20;16.20;99.90
20380;DHT22;10349;48.666;8.948;2023-06-26T03:06:47;16.10;99.90
20380;DHT22;10349;48.666;8.948;2023-06-26T03:09:14;16.10;99.90
20380;DHT22;10349;48.666;8.948;2023-06-26T03:11:41;16.10;99.90
20380;DHT22;10349;48.666;8.948;2023-06-26T03:14:07;16.10;99.90
20380;DHT22;10349;48.666;8.948;2023-06-26T03:16:33;16.10;99.90
20380;DHT22;10349;48.666;8.948;2023-06-26T03:18:58;16.10;99.90
20380;DHT22;10349;48.666;8.948;2023-06-26T03:21:25;16.10;99.90
20380;DHT22;10349;48.666;8.948;2023-06-26T03:23:50;16.10;99.90
20380;DHT22;10349;48.666;8.948;2023-06-26T03:26:16;16.10;99.90
20380;DHT22;10349;48.666;8.948;2023-06-26T03:28:44;16.10;99.90
20380;DHT22;10349;48.666;8.948;2023-06-26T03:31:09;16.20;99.90
20380;DHT22;10349;48.666;8.948;2023-06-26T03:33:37;16.20;99.90
20380;DHT22;10349;48.666;8.948;2023-06-26T03:36:03;16.20;99.90
20380;DHT22;10349;48.666;8.948;2023-06-26T03:38:28;16.20;99.90
20380;DHT22;10349;48.666;8.948;2023-06-26T03:40:57;16.20;99.90
20380;DHT22;10349;48.666;8.948;2023-06-26T03:43:23;16.10;99.90
20380;DHT22;10349;48.666;8.948;2023-06-26T03:45:58;16.20;99.90
20380;DHT22;10349;48.666;8.948;2023-06-26T03:48:25;16.00;99.90
20380;DHT22;10349;48.666;8.948;2023-06-26T03:50:51;16.00;99.90
20380;DHT22;10349;48.666;8.948;2023-06-26T03:53:17;16.10;99.90
20380;DHT22;10349;48.666;8.948;2023-06-26T03:55:43;16.10;99.90
20380;DHT22;10349;48.666;8.948;2023-06-26T03:58:09;16.10;99.90
20380;DHT22;10349;48.666;8.948;2023-06-26T04:00:34;16.10;99.90
20380;DHT22;10349;48.666;8.948;2023-06-26T04:03:00;16.10;99.90
20380;DHT22;10349;48.666;8.948;2023-06-26T04:05:26;16.10;99.90
20380;DHT22;10349;48.666;8.948;2023-06-26T04:07:52;16.10;99.90
20380;DHT22;10349;48.666;8.948;2023-06-26T04:10:19;16.20;99.90
20380;DHT22;10349;48.666;8.948;2023-06-26T04:12:47;16.20;99.90
20380;DHT22;10349;48.666;8.948;2023-06-26T04:15:13;16.30;99.90
20380;DHT22;10349;48.666;8.948;2023-06-26T04:17:39;16.30;99.90
20380;DHT22;10349;48.666;8.948;2023-06-26T04:20:05;16.30;99.90
20380;DHT22;10349;48.666;8.948;2023-06-26T04:22:32;16.30;99.90
20380;DHT22;10349;48.666;8.948;2023-06-26T04:25:01;16.30;99.90
20380;DHT22;10349;48.666;8.948;2023-06-26T04:33:08;17.00;99.90
20380;DHT22;10349;48.666;8.948;2023-06-26T04:35:37;17.60;99.90
20380;DHT22;10349;48.666;8.948;2023-06-26T04:38:03;18.10;99.90
20380;DHT22;10349;48.666;8.948;2023-06-26T04:40:30;18.40;99.90
20380;DHT22;10349;48.666;8.948;2023-06-26T04:42:56;18.80;99.90
20380;DHT22;10349;48.666;8.948;2023-06-26T04:45:22;19.30;99.90
20380;DHT22;10349;48.666;8.948;2023-06-26T04:47:48;19.60;99.90
20380;DHT22;10349;48.666;8.948;2023-06-26T04:50:16;19.70;99.90
20380;DHT22;10349;48.666;8.948;2023-06-26T04:52:44;19.80;99.90
20380;DHT22;10349;48.666;8.948;2023-06-26T04:55:10;19.90;99.90
20380;DHT22;10349;48.666;8.948;2023-06-26T04:57:36;20.30;99.90
20380;DHT22;10349;48.666;8.948;2023-06-26T05:00:03;20.50;99.90
20380;DHT22;10349;48.666;8.948;2023-06-26T05:02:35;20.70;99.90
20380;DHT22;10349;48.666;8.948;2023-06-26T05:05:00;21.20;99.90
20380;DHT22;10349;48.666;8.948;2023-06-26T05:07:26;21.50;99.90
20380;DHT22;10349;48.666;8.948;2023-06-26T05:09:52;21.90;99.90
20380;DHT22;10349;48.666;8.948;2023-06-26T05:12:18;22.40;99.90
20380;DHT22;10349;48.666;8.948;2023-06-26T05:14:43;22.50;99.90
20380;DHT22;10349;48.666;8.948;2023-06-26T05:17:09;22.70;99.90
20380;DHT22;10349;48.666;8.948;2023-06-26T05:19:35;22.90;99.90
20380;DHT22;10349;48.666;8.948;2023-06-26T05:22:01;23.10;99.90
20380;DHT22;10349;48.666;8.948;2023-06-26T05:24:30;23.20;99.90
20380;DHT22;10349;48.666;8.948;2023-06-26T05:26:56;23.30;99.90
20380;DHT22;10349;48.666;8.948;2023-06-26T05:29:22;23.50;99.90
20380;DHT22;10349;48.666;8.948;2023-06-26T05:31:49;24.00;99.90
20380;DHT22;10349;48.666;8.948;2023-06-26T05:34:16;24.50;99.90
20380;DHT22;10349;48.666;8.948;2023-06-26T05:36:42;25.00;99.90
20380;DHT22;10349;48.666;8.948;2023-06-26T05:39:11;25.20;99.90
20380;DHT22;10349;48.666;8.948;2023-06-26T05:41:36;25.40;99.90
20380;DHT22;10349;48.666;8.948;2023-06-26T05:44:02;25.20;99.90
20380;DHT22;10349;48.666;8.948;2023-06-26T05:46:28;25.30;99.90
20380;DHT22;10349;48.666;8.948;2023-06-26T05:48:54;25.50;99.90
20380;DHT22;10349;48.666;8.948;2023-06-26T05:51:19;25.70;99.90
20380;DHT22;10349;48.666;8.948;2023-06-26T05:53:45;25.50;99.90
20380;DHT22;10349;48.666;8.948;2023-06-26T05:56:11;25.70;99.90
20380;DHT22;10349;48.666;8.948;2023-06-26T05:58:38;25.90;99.90
20380;DHT22;10349;48.666;8.948;2023-06-26T06:01:03;25.80;99.90
20380;DHT22;10349;48.666;8.948;2023-06-26T06:03:29;25.60;99.90
20380;DHT22;10349;48.666;8.948;2023-06-26T06:05:55;25.30;99.90
20380;DHT22;10349;48.666;8.948;2023-06-26T06:08:20;24.90;99.90
20380;DHT22;10349;48.666;8.948;2023-06-26T06:10:46;24.90;99.90
20380;DHT22;10349;48.666;8.948;2023-06-26T06:13:12;24.90;99.90
20380;DHT22;10349;48.666;8.948;2023-06-26T06:15:37;25.30;99.90
20380;DHT22;10349;48.666;8.948;2023-06-26T06:18:03;25.00;99.90
20380;DHT22;10349;48.666;8.948;2023-06-26T06:20:28;25.10;99.90
20380;DHT22;10349;48.666;8.948;2023-06-26T06:22:54;24.80;99.90
20380;DHT22;10349;48.666;8.948;2023-06-26T06:25:20;24.90;99.90
20380;DHT22;10349;48.666;8.948;2023-06-26T06:27:45;24.90;99.90
20380;DHT22;10349;48.666;8.948;2023-06-26T06:30:12;25.10;99.90
20380;DHT22;10349;48.666;8.948;2023-06-26T06:32:37;25.30;99.90
20380;DHT22;10349;48.666;8.948;2023-06-26T06:35:03;25.50;99.90
20380;DHT22;10349;48.666;8.948;2023-06-26T06:37:37;25.50;99.90
20380;DHT22;10349;48.666;8.948;2023-06-26T06:40:05;25.70;99.90
20380;DHT22;10349;48.666;8.948;2023-06-26T06:42:32;25.90;99.90
20380;DHT22;10349;48.666;8.948;2023-06-26T06:44:58;26.10;99.90
20380;DHT22;10349;48.666;8.948;2023-06-26T06:47:25;26.20;99.90
20380;DHT22;10349;48.666;8.948;2023-06-26T06:49:50;26.40;99.90
20380;DHT22;10349;48.666;8.948;2023-06-26T06:52:16;26.50;99.90
20380;DHT22;10349;48.666;8.948;2023-06-26T06:54:57;26.30;99.90
20380;DHT22;10349;48.666;8.948;2023-06-26T06:57:30;26.30;99.90
20380;DHT22;10349;48.666;8.948;2023-06-26T06:59:56;26.30;99.90
20380;DHT22;10349;48.666;8.948;2023-06-26T07:02:21;26.40;99.90
20380;DHT22;10349;48.666;8.948;2023-06-26T07:04:47;26.50;99.90
20380;DHT22;10349;48.666;8.948;2023-06-26T07:07:13;26.40;99.90
20380;DHT22;10349;48.666;8.948;2023-06-26T07:09:41;26.60;99.90
20380;DHT22;10349;48.666;8.948;2023-06-26T07:12:07;26.70;99.90
20380;DHT22;10349;48.666;8.948;2023-06-26T07:14:33;26.90;99.90
20380;DHT22;10349;48.666;8.948;2023-06-26T07:16:58;26.90;99.90
20380;DHT22;10349;48.666;8.948;2023-06-26T07:19:24;26.80;99.90
20380;DHT22;10349;48.666;8.948;2023-06-26T07:21:50;27.00;99.90
20380;DHT22;10349;48.666;8.948;2023-06-26T07:24:15;26.80;99.90
20380;DHT22;10349;48.666;8.948;2023-06-26T07:26:41;27.00;99.90
20380;DHT22;10349;48.666;8.948;2023-06-26T07:29:06;27.10;99.90
20380;DHT22;10349;48.666;8.948;2023-06-26T07:31:32;27.20;99.90
20380;DHT22;10349;48.666;8.948;2023-06-26T07:33:58;27.40;99.90
20380;DHT22;10349;48.666;8.948;2023-06-26T07:36:23;27.30;99.90
20380;DHT22;10349;48.666;8.948;2023-06-26T07:38:49;27.40;99.90
20380;DHT22;10349;48.666;8.948;2023-06-26T07:41:14;27.60;99.90
20380;DHT22;10349;48.666;8.948;2023-06-26T07:43:40;27.90;99.90
20380;DHT22;10349;48.666;8.948;2023-06-26T07:46:06;28.20;99.90
20380;DHT22;10349;48.666;8.948;2023-06-26T07:48:31;28.30;99.90
20380;DHT22;10349;48.666;8.948;2023-06-26T07:50:57;28.20;99.90
20380;DHT22;10349;48.666;8.948;2023-06-26T07:53:22;28.20;99.90
20380;DHT22;10349;48.666;8.948;2023-06-26T07:55:48;28.40;99.90
20380;DHT22;10349;48.666;8.948;2023-06-26T07:58:14;28.80;99.90
20380;DHT22;10349;48.666;8.948;2023-06-26T08:00:40;29.00;99.90
20380;DHT22;10349;48.666;8.948;2023-06-26T08:03:05;29.20;99.90
20380;DHT22;10349;48.666;8.948;2023-06-26T08:05:31;29.30;99.90
20380;DHT22;10349;48.666;8.948;2023-06-26T08:07:57;29.30;99.90
20380;DHT22;10349;48.666;8.948;2023-06-26T08:10:22;29.50;99.90
20380;DHT22;10349;48.666;8.948;2023-06-26T08:12:48;29.30;99.90
20380;DHT22;10349;48.666;8.948;2023-06-26T08:15:15;29.10;99.90
20380;DHT22;10349;48.666;8.948;2023-06-26T08:17:41;29.20;99.90
20380;DHT22;10349;48.666;8.948;2023-06-26T08:20:07;29.20;99.90
20380;DHT22;10349;48.666;8.948;2023-06-26T08:22:33;29.30;99.90
20380;DHT22;10349;48.666;8.948;2023-06-26T08:24:59;29.50;99.90
20380;DHT22;10349;48.666;8.948;2023-06-26T08:27:25;29.90;99.90
20380;DHT22;10349;48.666;8.948;2023-06-26T08:29:51;30.10;99.90
20380;DHT22;10349;48.666;8.948;2023-06-26T08:32:16;30.30;99.90
20380;DHT22;10349;48.666;8.948;2023-06-26T08:34:42;30.40;99.90
20380;DHT22;10349;48.666;8.948;2023-06-26T08:37:08;30.60;99.90
20380;DHT22;10349;48.666;8.948;2023-06-26T08:39:36;30.50;99.90
20380;DHT22;10349;48.666;8.948;2023-06-26T08:42:02;30.70;99.90
20380;DHT22;10349;48.666;8.948;2023-06-26T08:44:28;30.70;99.90
20380;DHT22;10349;48.666;8.948;2023-06-26T08:46:53;30.50;99.90
20380;DHT22;10349;48.666;8.948;2023-06-26T08:52:23;30.40;99.90
20380;DHT22;10349;48.666;8.948;2023-06-26T08:54:54;30.60;99.90
20380;DHT22;10349;48.666;8.948;2023-06-26T08:57:22;30.70;99.90
20380;DHT22;10349;48.666;8.948;2023-06-26T08:59:48;30.80;99.90
20380;DHT22;10349;48.666;8.948;2023-06-26T09:02:14;30.80;99.90
20380;DHT22;10349;48.666;8.948;2023-06-26T09:04:40;31.00;99.90
20380;DHT22;10349;48.666;8.948;2023-06-26T09:07:07;31.00;99.90
20380;DHT22;10349;48.666;8.948;2023-06-26T09:09:33;31.00;99.90
20380;DHT22;10349;48.666;8.948;2023-06-26T09:12:00;30.70;99.90
20380;DHT22;10349;48.666;8.948;2023-06-26T09:14:27;30.70;99.90
20380;DHT22;10349;48.666;8.948;2023-06-26T09:16:53;30.70;99.90
20380;DHT22;10349;48.666;8.948;2023-06-26T09:19:18;30.70;99.90
20380;DHT22;10349;48.666;8.948;2023-06-26T09:21:44;30.70;99.90
20380;DHT22;10349;48.666;8.948;2023-06-26T09:24:10;30.90;99.90
20380;DHT22;10349;48.666;8.948;2023-06-26T09:26:40;30.80;99.90
20380;DHT22;10349;48.666;8.948;2023-06-26T09:29:06;30.90;99.90
20380;DHT22;10349;48.666;8.948;2023-06-26T09:31:33;31.00;99.90
20380;DHT22;10349;48.666;8.948;2023-06-26T09:34:01;31.20;99.90
20380;DHT22;10349;48.666;8.948;2023-06-26T09:36:29;31.30;99.90
20380;DHT22;10349;48.666;8.948;2023-06-26T09:39:05;31.10;99.90
20380;DHT22;10349;48.666;8.948;2023-06-26T09:41:35;31.10;99.90
20380;DHT22;10349;48.666;8.948;2023-06-26T09:44:02;31.20;99.90
20380;DHT22;10349;48.666;8.948;2023-06-26T09:46:31;31.40;99.90
20380;DHT22;10349;48.666;8.948;2023-06-26T09:49:10;31.50;99.90
20380;DHT22;10349;48.666;8.948;2023-06-26T09:51:38;31.50;99.90
20380;DHT22;10349;48.666;8.948;2023-06-26T09:54:05;31.10;99.90
20380;DHT22;10349;48.666;8.948;2023-06-26T09:56:32;30.90;99.90
20380;DHT22;10349;48.666;8.948;2023-06-26T09:58:59;31.00;99.90
20380;DHT22;10349;48.666;8.948;2023-06-26T10:01:27;31.10;99.90
20380;DHT22;10349;48.666;8.948;2023-06-26T10:03:56;31.10;99.90
20380;DHT22;10349;48.666;8.948;2023-06-26T10:06:33;31.20;99.90
20380;DHT22;10349;48.666;8.948;2023-06-26T10:09:00;31.10;99.90
20380;DHT22;10349;48.666;8.948;2023-06-26T10:11:32;31.30;99.90
20380;DHT22;10349;48.666;8.948;2023-06-26T10:14:01;31.40;99.90
20380;DHT22;10349;48.666;8.948;2023-06-26T10:16:28;30.90;99.90
20380;DHT22;10349;48.666;8.948;2023-06-26T10:19:02;30.70;99.90
20380;DHT22;10349;48.666;8.948;2023-06-26T10:21:29;30.80;99.90
20380;DHT22;10349;48.666;8.948;2023-06-26T10:23:57;30.70;99.90
20380;DHT22;10349;48.666;8.948;2023-06-26T10:26:24;30.50;99.90
20380;DHT22;10349;48.666;8.948;2023-06-26T10:28:53;30.50;99.90
20380;DHT22;10349;48.666;8.948;2023-06-26T10:31:22;30.30;99.90
20380;DHT22;10349;48.666;8.948;2023-06-26T10:33:49;30.30;99.90
20380;DHT22;10349;48.666;8.948;2023-06-26T10:36:27;30.40;99.90
20380;DHT22;10349;48.666;8.948;2023-06-26T10:38:56;30.60;99.90
20380;DHT22;10349;48.666;8.948;2023-06-26T10:41:25;30.50;99.90
20380;DHT22;10349;48.666;8.948;2023-06-26T10:46:56;30.50;99.90
20380;DHT22;10349;48.666;8.948;2023-06-26T10:49:28;30.60;99.90
20380;DHT22;10349;48.666;8.948;2023-06-26T10:51:55;30.70;99.90
20380;DHT22;10349;48.666;8.948;2023-06-26T10:54:28;30.80;99.90
20380;DHT22;10349;48.666;8.948;2023-06-26T10:56:55;30.70;99.90
20380;DHT22;10349;48.666;8.948;2023-06-26T10:59:26;30.40;99.90
20380;DHT22;10349;48.666;8.948;2023-06-26T11:02:00;30.40;99.90
20380;DHT22;10349;48.666;8.948;2023-06-26T11:07:22;30.40;99.90
20380;DHT22;10349;48.666;8.948;2023-06-26T11:09:59;30.10;99.90
20380;DHT22;10349;48.666;8.948;2023-06-26T11:12:40;30.10;99.90
20380;DHT22;10349;48.666;8.948;2023-06-26T11:15:16;30.10;99.90
20380;DHT22;10349;48.666;8.948;2023-06-26T11:17:43;30.10;99.90
20380;DHT22;10349;48.666;8.948;2023-06-26T11:20:10;30.10;99.90
20380;DHT22;10349;48.666;8.948;2023-06-26T11:22:41;29.90;99.90
20380;DHT22;10349;48.666;8.948;2023-06-26T11:25:08;29.90;99.90
20380;DHT22;10349;48.666;8.948;2023-06-26T11:27:41;30.00;99.90
20380;DHT22;10349;48.666;8.948;2023-06-26T11:30:09;29.70;99.90
20380;DHT22;10349;48.666;8.948;2023-06-26T11:32:37;29.90;99.90
20380;DHT22;10349;48.666;8.948;2023-06-26T11:35:03;30.00;99.90
20380;DHT22;10349;48.666;8.948;2023-06-26T11:37:30;30.10;99.90
20380;DHT22;10349;48.666;8.948;2023-06-26T11:39:56;30.10;99.90
20380;DHT22;10349;48.666;8.948;2023-06-26T11:42:22;30.10;99.90
20380;DHT22;10349;48.666;8.948;2023-06-26T11:44:49;30.10;99.90
20380;DHT22;10349;48.666;8.948;2023-06-26T11:47:17;30.30;99.90
20380;DHT22;10349;48.666;8.948;2023-06-26T11:49:52;30.30;99.90
20380;DHT22;10349;48.666;8.948;2023-06-26T11:52:17;30.40;99.90
20380;DHT22;10349;48.666;8.948;2023-06-26T11:54:44;30.40;99.90
20380;DHT22;10349;48.666;8.948;2023-06-26T11:57:14;30.70;99.90
20380;DHT22;10349;48.666;8.948;2023-06-26T11:59:40;30.40;99.90
20380;DHT22;10349;48.666;8.948;2023-06-26T12:02:07;30.30;99.90
20380;DHT22;10349;48.666;8.948;2023-06-26T12:04:33;30.00;99.90
20380;DHT22;10349;48.666;8.948;2023-06-26T12:07:00;29.90;99.90
20380;DHT22;10349;48.666;8.948;2023-06-26T12:09:29;29.80;99.90
20380;DHT22;10349;48.666;8.948;2023-06-26T12:11:56;29.50;99.90
20380;DHT22;10349;48.666;8.948;2023-06-26T12:14:23;29.60;99.90
20380;DHT22;10349;48.666;8.948;2023-06-26T12:16:51;29.50;99.90
20380;DHT22;10349;48.666;8.948;2023-06-26T12:19:17;29.40;99.90
20380;DHT22;10349;48.666;8.948;2023-06-26T12:21:49;29.40;99.90
20380;DHT22;10349;48.666;8.948;2023-06-26T12:24:20;29.50;99.90
20380;DHT22;10349;48.666;8.948;2023-06-26T12:26:52;29.60;99.90
20380;DHT22;10349;48.666;8.948;2023-06-26T12:29:31;29.80;99.90
20380;DHT22;10349;48.666;8.948;2023-06-26T12:31:57;29.80;99.90
20380;DHT22;10349;48.666;8.948;2023-06-26T12:34:34;29.80;99.90
20380;DHT22;10349;48.666;8.948;2023-06-26T12:37:08;29.90;99.90
20380;DHT22;10349;48.666;8.948;2023-06-26T12:39:51;30.00;99.90
20380;DHT22;10349;48.666;8.948;2023-06-26T12:42:22;29.80;99.90
20380;DHT22;10349;48.666;8.948;2023-06-26T12:44:49;29.80;99.90
20380;DHT22;10349;48.666;8.948;2023-06-26T12:47:24;29.80;99.90
20380;DHT22;10349;48.666;8.948;2023-06-26T12:49:51;29.90;99.90
20380;DHT22;10349;48.666;8.948;2023-06-26T12:52:17;29.80;99.90
20380;DHT22;10349;48.666;8.948;2023-06-26T12:54:52;29.70;99.90
20380;DHT22;10349;48.666;8.948;2023-06-26T12:57:18;29.60;99.90
20380;DHT22;10349;48.666;8.948;2023-06-26T12:59:44;29.60;99.90
20380;DHT22;10349;48.666;8.948;2023-06-26T13:02:10;29.60;99.90
20380;DHT22;10349;48.666;8.948;2023-06-26T13:04:37;29.80;99.90
20380;DHT22;10349;48.666;8.948;2023-06-26T13:07:08;29.90;99.90
20380;DHT22;10349;48.666;8.948;2023-06-26T13:09:34;29.90;99.90
20380;DHT22;10349;48.666;8.948;2023-06-26T13:12:01;29.70;99.90
20380;DHT22;10349;48.666;8.948;2023-06-26T13:14:31;29.70;99.90
20380;DHT22;10349;48.666;8.948;2023-06-26T13:17:00;29.80;99.90
20380;DHT22;10349;48.666;8.948;2023-06-26T13:19:29;29.80;99.90
20380;DHT22;10349;48.666;8.948;2023-06-26T13:21:56;29.70;99.90
20380;DHT22;10349;48.666;8.948;2023-06-26T13:24:22;29.90;99.90
20380;DHT22;10349;48.666;8.948;2023-06-26T13:26:48;29.80;99.90
20380;DHT22;10349;48.666;8.948;2023-06-26T13:29:13;29.90;99.90
20380;DHT22;10349;48.666;8.948;2023-06-26T13:31:39;30.00;99.90
20380;DHT22;10349;48.666;8.948;2023-06-26T13:34:05;29.90;99.90
20380;DHT22;10349;48.666;8.948;2023-06-26T13:36:32;29.80;99.90
20380;DHT22;10349;48.666;8.948;2023-06-26T13:39:01;29.50;99.90
20380;DHT22;10349;48.666;8.948;2023-06-26T13:41:27;29.30;99.90
20380;DHT22;10349;48.666;8.948;2023-06-26T13:43:54;29.40;99.90
20380;DHT22;10349;48.666;8.948;2023-06-26T13:46:20;29.50;99.90
20380;DHT22;10349;48.666;8.948;2023-06-26T13:48:46;29.30;99.90
20380;DHT22;10349;48.666;8.948;2023-06-26T13:51:12;29.30;99.90
20380;DHT22;10349;48.666;8.948;2023-06-26T13:53:38;29.40;99.90
20380;DHT22;10349;48.666;8.948;2023-06-26T13:56:04;29.30;99.90
20380;DHT22;10349;48.666;8.948;2023-06-26T13:58:30;29.40;99.90
20380;DHT22;10349;48.666;8.948;2023-06-26T14:00:58;29.40;99.90
20380;DHT22;10349;48.666;8.948;2023-06-26T14:03:24;29.30;99.90
20380;DHT22;10349;48.666;8.948;2023-06-26T14:05:49;29.40;99.90
20380;DHT22;10349;48.666;8.948;2023-06-26T14:08:15;29.40;99.90
20380;DHT22;10349;48.666;8.948;2023-06-26T14:10:41;29.60;99.90
20380;DHT22;10349;48.666;8.948;2023-06-26T14:13:06;29.70;99.90
20380;DHT22;10349;48.666;8.948;2023-06-26T14:15:34;29.90;99.90
20380;DHT22;10349;48.666;8.948;2023-06-26T14:18:01;29.90;99.90
20380;DHT22;10349;48.666;8.948;2023-06-26T14:20:28;30.00;99.90
20380;DHT22;10349;48.666;8.948;2023-06-26T14:22:58;30.00;99.90
20380;DHT22;10349;48.666;8.948;2023-06-26T14:25:24;29.70;99.90
20380;DHT22;10349;48.666;8.948;2023-06-26T14:27:50;29.70;99.90
20380;DHT22;10349;48.666;8.948;2023-06-26T14:30:15;29.80;99.90
20380;DHT22;10349;48.666;8.948;2023-06-26T14:32:41;29.90;99.90
20380;DHT22;10349;48.666;8.948;2023-06-26T14:35:07;30.00;99.90
20380;DHT22;10349;48.666;8.948;2023-06-26T14:37:35;30.20;99.90
20380;DHT22;10349;48.666;8.948;2023-06-26T14:40:01;30.10;99.90
20380;DHT22;10349;48.666;8.948;2023-06-26T14:42:27;30.30;99.90
20380;DHT22;10349;48.666;8.948;2023-06-26T14:44:52;30.30;99.90
20380;DHT22;10349;48.666;8.948;2023-06-26T14:47:18;30.10;99.90
20380;DHT22;10349;48.666;8.948;2023-06-26T14:49:44;29.50;99.90
20380;DHT22;10349;48.666;8.948;2023-06-26T14:52:10;29.60;99.90
20380;DHT22;10349;48.666;8.948;2023-06-26T14:54:36;29.60;99.90
20380;DHT22;10349;48.666;8.948;2023-06-26T14:57:03;29.50;99.90
20380;DHT22;10349;48.666;8.948;2023-06-26T14:59:29;29.60;99.90
20380;DHT22;10349;48.666;8.948;2023-06-26T15:01:54;29.80;99.90
20380;DHT22;10349;48.666;8.948;2023-06-26T15:04:20;29.80;99.90
20380;DHT22;10349;48.666;8.948;2023-06-26T15:06:46;30.00;99.90
20380;DHT22;10349;48.666;8.948;2023-06-26T15:09:12;30.00;99.90
20380;DHT22;10349;48.666;8.948;2023-06-26T15:11:37;30.00;99.90
20380;DHT22;10349;48.666;8.948;2023-06-26T15:14:03;29.90;99.90
20380;DHT22;10349;48.666;8.948;2023-06-26T15:16:28;29.80;99.90
20380;DHT22;10349;48.666;8.948;2023-06-26T15:18:54;29.80;99.90
20380;DHT22;10349;48.666;8.948;2023-06-26T15:21:20;29.50;99.90
20380;DHT22;10349;48.666;8.948;2023-06-26T15:23:47;29.70;99.90
20380;DHT22;10349;48.666;8.948;2023-06-26T15:26:12;29.90;99.90
20380;DHT22;10349;48.666;8.948;2023-06-26T15:28:39;29.90;99.90
20380;DHT22;10349;48.666;8.948;2023-06-26T15:31:05;30.10;99.90
20380;DHT22;10349;48.666;8.948;2023-06-26T15:33:31;30.00;99.90
20380;DHT22;10349;48.666;8.948;2023-06-26T15:35:56;30.10;99.90
20380;DHT22;10349;48.666;8.948;2023-06-26T15:38:23;30.10;99.90
20380;DHT22;10349;48.666;8.948;2023-06-26T15:40:49;29.90;99.90
20380;DHT22;10349;48.666;8.948;2023-06-26T15:43:15;29.60;99.90
20380;DHT22;10349;48.666;8.948;2023-06-26T15:45:47;29.40;99.90
20380;DHT22;10349;48.666;8.948;2023-06-26T15:48:13;29.40;99.90